Time;durP1;ratioP1;P1;durP2;ratioP2;P2;SDS_P1;SDS_P2;PMS_P1;PMS_P2;Temp;Humidity;BMP_temperature;BMP_pressure;BME280_temperature;BME280_humidity;BME280_pressure;Samples;Min_cycle;Max_cycle;Signal;HPM_P1;HPM_P2
2023/06/13 00:02:29;;;;;;;16.00;3.10;;;;;;;17.44;47.22;100891.58;5016060;57;1140491;-64
2023/06/13 00:07:37;;;;;;;11.88;3.00;;;;;;;17.39;47.49;100885.38;5058846;57;1140973;-66
2023/06/13 00:12:44;;;;;;;7.08;2.85;;;;;;;17.30;48.65;100885.44;5057606;57;1140614;-64
2023/06/13 00:17:50;;;;;;;17.55;3.77;;;;;;;17.20;50.03;100889.53;5000112;57;1138562;-63
2023/06/13 00:22:56;;;;;;;5.93;2.70;;;;;;;17.12;50.67;100899.63;4969981;58;1141095;-64
2023/06/13 00:28:01;;;;;;;6.07;3.60;;;;;;;17.02;51.08;100916.73;4989545;58;1138641;-63
2023/06/13 00:33:07;;;;;;;15.27;4.10;;;;;;;16.86;52.51;100916.91;4970460;58;1139043;-64
2023/06/13 00:38:13;;;;;;;10.50;2.47;;;;;;;16.81;53.03;100899.63;4970033;58;1140820;-64
2023/06/13 00:43:18;;;;;;;7.27;2.33;;;;;;;16.78;53.99;100881.26;4989428;58;1140970;-63
2023/06/13 00:48:24;;;;;;;8.00;2.50;;;;;;;16.75;54.01;100875.72;4966936;58;1138857;-63
2023/06/13 00:53:31;;;;;;;8.67;2.57;;;;;;;16.66;54.67;100873.08;4959390;57;1138582;-64
2023/06/13 00:58:38;;;;;;;18.48;3.00;;;;;;;16.59;54.95;100872.83;4959865;57;1138718;-64
2023/06/13 01:03:45;;;;;;;12.03;2.30;;;;;;;16.52;54.31;100881.91;5012828;57;1148954;-63
2023/06/13 01:08:58;;;;;;;6.22;2.30;;;;;;;16.47;55.00;100882.88;4959163;58;1140757;-64
2023/06/13 01:14:13;;;;;;;4.80;1.93;;;;;;;16.36;54.93;100876.37;4958624;58;1138539;-63
2023/06/13 01:19:34;;;;;;;12.73;3.27;;;;;;;16.32;55.04;100872.34;4983200;57;1138615;-64
2023/06/13 01:24:59;;;;;;;5.43;2.20;;;;;;;16.27;55.07;100875.93;4944271;57;1140695;-65
2023/06/13 01:30:06;;;;;;;10.40;1.80;;;;;;;16.23;54.60;100869.20;4905050;58;1138626;-64
2023/06/13 01:35:13;;;;;;;11.83;2.60;;;;;;;16.23;54.26;100873.69;4979597;58;1140931;-64
2023/06/13 01:40:19;;;;;;;6.47;2.20;;;;;;;16.17;54.28;100873.80;4960186;58;1140925;-63
2023/06/13 01:45:26;;;;;;;2.97;2.07;;;;;;;16.07;54.24;100882.31;4960157;57;1138892;-63
2023/06/13 01:50:49;;;;;;;3.30;1.70;;;;;;;16.04;54.67;100878.11;4959966;57;1138707;-64
2023/06/13 01:56:08;;;;;;;6.83;1.80;;;;;;;16.00;54.04;100880.74;4979513;57;1138790;-64
2023/06/13 02:01:14;;;;;;;2.23;1.90;;;;;;;15.93;54.34;100874.28;4983706;57;1138593;-63
2023/06/13 02:06:20;;;;;;;5.63;1.70;;;;;;;15.82;54.15;100868.64;5041735;57;1138594;-63
2023/06/13 02:11:26;;;;;;;11.37;2.10;;;;;;;15.77;54.20;100862.89;5061660;57;1138691;-63
2023/06/13 02:16:32;;;;;;;5.03;2.03;;;;;;;15.76;54.33;100861.69;5011906;57;1140888;-63
2023/06/13 02:21:38;;;;;;;9.65;1.90;;;;;;;15.71;54.15;100855.48;4956207;58;1138953;-65
2023/06/13 02:26:44;;;;;;;3.62;2.00;;;;;;;15.68;54.58;100854.42;4974786;58;1139322;-64
2023/06/13 02:31:49;;;;;;;4.47;1.87;;;;;;;15.67;54.88;100854.57;4955691;58;1138640;-63
2023/06/13 02:36:55;;;;;;;4.10;1.62;;;;;;;15.64;54.72;100852.19;4955717;58;1138800;-64
2023/06/13 02:42:00;;;;;;;3.50;1.53;;;;;;;15.60;54.96;100863.62;4975294;58;1138803;-64
2023/06/13 02:47:07;;;;;;;4.90;1.77;;;;;;;15.53;55.12;100871.82;4957722;57;1138676;-64
2023/06/13 02:52:13;;;;;;;4.50;1.70;;;;;;;15.38;55.95;100885.23;4962614;58;1138749;-64
2023/06/13 02:57:18;;;;;;;7.63;1.90;;;;;;;15.22;56.47;100887.61;4989973;58;1138546;-63
2023/06/13 03:02:25;;;;;;;10.33;2.10;;;;;;;15.10;57.61;100885.58;5014681;57;1138835;-63
2023/06/13 03:07:32;;;;;;;4.50;1.93;;;;;;;15.06;57.50;100890.83;4857269;59;1140921;-63
2023/06/13 03:12:41;;;;;;;4.14;1.68;;;;;;;15.08;57.54;100878.22;4899311;59;1138897;-66
2023/06/13 03:17:47;;;;;;;5.95;2.33;;;;;;;15.14;57.72;100870.98;5012155;57;1138641;-63
2023/06/13 03:22:53;;;;;;;2.30;1.72;;;;;;;15.13;57.98;100875.95;4970258;58;1138596;-63
2023/06/13 03:27:58;;;;;;;2.90;1.37;;;;;;;15.11;58.34;100880.13;4969886;58;1138465;-64
2023/06/13 03:33:05;;;;;;;7.63;2.10;;;;;;;15.04;58.57;100894.12;4989805;58;1138605;-63
2023/06/13 03:38:14;;;;;;;4.30;1.80;;;;;;;14.97;59.37;100893.00;4970144;58;1138441;-64
2023/06/13 03:43:20;;;;;;;19.13;2.53;;;;;;;14.98;59.55;100902.16;5009394;57;1138789;-63
2023/06/13 03:48:26;;;;;;;7.47;2.37;;;;;;;14.98;59.83;100895.50;5072195;57;1140847;-63
2023/06/13 03:53:32;;;;;;;5.40;1.77;;;;;;;14.89;60.12;100887.02;5052071;57;1138655;-64
2023/06/13 03:58:38;;;;;;;2.80;1.75;;;;;;;14.89;60.12;100887.02;5052422;57;1138703;-64
2023/06/13 04:03:44;;;;;;;11.00;1.70;;;;;;;14.88;60.33;100904.46;5071967;57;1138627;-64
2023/06/13 04:08:50;;;;;;;2.47;2.20;;;;;;;14.91;60.24;100900.20;5028015;57;1140714;-64
2023/06/13 04:13:55;;;;;;;6.10;2.08;;;;;;;14.92;60.60;100899.22;4970473;57;1138785;-64
2023/06/13 04:19:01;;;;;;;5.80;1.73;;;;;;;14.94;60.21;100903.44;4986187;58;1138594;-64
2023/06/13 04:24:07;;;;;;;10.23;1.90;;;;;;;14.96;60.41;100906.81;4965545;58;1138657;-64
2023/06/13 04:29:15;;;;;;;6.73;2.17;;;;;;;14.98;60.17;100905.31;4965277;58;1140746;-64
2023/06/13 04:34:23;;;;;;;9.47;1.90;;;;;;;15.03;61.02;100907.08;4984801;58;1138632;-64
2023/06/13 04:39:28;;;;;;;10.20;2.20;;;;;;;15.01;60.97;100907.70;4967521;57;1138827;-63
2023/06/13 04:44:35;;;;;;;4.60;1.90;;;;;;;15.01;61.10;100893.90;4969717;58;1140985;-64
2023/06/13 04:49:41;;;;;;;7.70;2.00;;;;;;;15.01;61.12;100906.38;4950935;58;1138671;-63
2023/06/13 04:54:47;;;;;;;9.23;2.35;;;;;;;15.00;61.40;100900.69;4989512;58;1138878;-63
2023/06/13 04:59:53;;;;;;;3.05;2.12;;;;;;;15.03;61.71;100903.93;4972928;57;1138801;-63
2023/06/13 05:04:59;;;;;;;7.13;2.30;;;;;;;15.05;62.28;100897.98;5030079;57;1138585;-63
2023/06/13 05:10:05;;;;;;;8.03;2.40;;;;;;;15.04;62.20;100900.78;4988602;57;1138908;-64
2023/06/13 05:15:11;;;;;;;10.23;1.90;;;;;;;15.03;62.46;100902.59;4973464;57;1138742;-63
2023/06/13 05:20:16;;;;;;;4.97;2.00;;;;;;;15.06;62.52;100901.00;5051849;57;1140819;-63
2023/06/13 05:25:23;;;;;;;11.27;2.20;;;;;;;15.14;62.59;100902.46;5071882;57;1138818;-64
2023/06/13 05:30:28;;;;;;;9.37;2.47;;;;;;;15.18;62.60;100899.52;5051852;57;1140715;-65
2023/06/13 05:35:34;;;;;;;36.60;4.78;;;;;;;15.15;63.27;100900.64;5016633;57;1138615;-63
2023/06/13 05:40:41;;;;;;;3.02;2.60;;;;;;;15.12;62.86;100907.08;4969885;58;1140796;-62
2023/06/13 05:45:48;;;;;;;6.67;2.33;;;;;;;15.09;63.16;100910.54;4989499;58;1138792;-63
2023/06/13 05:50:53;;;;;;;2.52;2.33;;;;;;;15.09;63.58;100913.20;4969775;58;1138619;-63
2023/06/13 05:55:59;;;;;;;8.13;2.40;;;;;;;15.04;63.72;100912.28;4970136;58;1138716;-63
2023/06/13 06:01:05;;;;;;;4.90;2.17;;;;;;;15.06;63.62;100917.47;4991675;57;1138768;-64
2023/06/13 06:06:10;;;;;;;5.87;2.53;;;;;;;15.07;64.52;100915.16;4970307;58;1138808;-64
2023/06/13 06:11:16;;;;;;;6.83;2.20;;;;;;;15.03;64.62;100920.40;4970247;58;1138707;-63
2023/06/13 06:16:21;;;;;;;10.03;2.17;;;;;;;15.01;64.72;100919.70;4990410;57;1138602;-63
2023/06/13 06:21:28;;;;;;;7.87;2.17;;;;;;;15.01;64.71;100918.36;4970208;58;1140594;-64
2023/06/13 06:26:34;;;;;;;13.13;2.63;;;;;;;15.02;65.58;100922.71;4970342;58;1138454;-63
2023/06/13 06:31:39;;;;;;;9.65;3.00;;;;;;;15.02;65.14;100924.05;4970322;58;1140757;-63
2023/06/13 06:36:45;;;;;;;4.13;2.07;;;;;;;15.05;65.36;100925.95;4990134;58;1138753;-64
2023/06/13 06:41:51;;;;;;;10.15;3.02;;;;;;;15.03;65.89;100924.40;4970550;58;1138799;-63
2023/06/13 06:46:58;;;;;;;3.13;2.47;;;;;;;14.99;66.60;100929.64;4970239;58;1140720;-63
2023/06/13 06:52:04;;;;;;;6.47;2.97;;;;;;;15.01;66.46;100927.69;4989676;58;1138796;-64
2023/06/13 06:57:10;;;;;;;6.20;3.10;;;;;;;15.02;66.51;100922.71;4970413;57;1138781;-63
2023/06/13 07:02:16;;;;;;;6.10;2.60;;;;;;;15.10;67.19;100927.72;5012335;57;1138880;-65
2023/06/13 07:07:21;;;;;;;3.83;2.37;;;;;;;15.23;66.88;100925.27;5072320;57;1138721;-64
2023/06/13 07:12:27;;;;;;;6.77;2.80;;;;;;;15.39;67.43;100917.08;5032006;57;1138863;-64
2023/06/13 07:17:33;;;;;;;7.10;2.60;;;;;;;15.61;66.17;100917.78;4970321;57;1138696;-64
2023/06/13 07:22:38;;;;;;;3.02;2.50;;;;;;;15.81;65.88;100921.63;4970463;58;1138861;-63
2023/06/13 07:27:44;;;;;;;8.23;2.60;;;;;;;16.14;65.65;100917.63;4989879;58;1138934;-64
2023/06/13 07:32:51;;;;;;;5.67;2.52;;;;;;;16.24;65.47;100929.59;4970387;58;1139040;-63
2023/06/13 07:37:56;;;;;;;3.80;2.80;;;;;;;16.19;64.99;100920.68;4970215;57;1138876;-65
2023/06/13 07:43:02;;;;;;;5.92;3.15;;;;;;;16.08;65.67;100930.70;4989814;58;1138599;-64
2023/06/13 07:48:08;;;;;;;13.73;3.17;;;;;;;15.99;66.21;100925.75;4970517;57;1138641;-64
2023/06/13 07:53:14;;;;;;;3.97;3.47;;;;;;;15.89;66.43;100920.90;4983634;57;1140762;-64
2023/06/13 07:58:19;;;;;;;6.80;3.60;;;;;;;15.87;67.33;100917.56;5071437;57;1138720;-64
2023/06/13 08:03:25;;;;;;;3.57;3.27;;;;;;;15.95;67.47;100911.49;5047205;57;1138731;-64
2023/06/13 08:08:31;;;;;;;10.50;3.13;;;;;;;16.01;67.34;100910.44;5041257;57;1138707;-63
2023/06/13 08:13:37;;;;;;;5.20;3.20;;;;;;;16.12;66.75;100914.26;5041511;57;1141030;-63
2023/06/13 08:18:44;;;;;;;13.45;3.15;;;;;;;16.21;66.37;100905.86;4996320;57;1138852;-66
2023/06/13 08:23:51;;;;;;;9.83;2.90;;;;;;;16.49;68.14;100902.26;4959398;58;1140955;-63
2023/06/13 08:28:57;;;;;;;5.20;2.70;;;;;;;16.68;63.95;100889.31;4959266;58;1138736;-64
2023/06/13 08:34:02;;;;;;;10.97;3.37;;;;;;;16.70;64.03;100896.69;4978945;58;1138680;-65
2023/06/13 08:39:08;;;;;;;9.50;3.57;;;;;;;16.78;62.75;100904.80;4958889;58;1140886;-63
2023/06/13 08:44:14;;;;;;;8.37;2.40;;;;;;;16.68;62.54;100900.48;4959427;58;1138712;-64
2023/06/13 08:49:19;;;;;;;7.00;2.77;;;;;;;16.98;64.23;100901.50;4992466;57;1138669;-63
2023/06/13 08:54:27;;;;;;;6.83;2.47;;;;;;;17.45;60.62;100899.94;5053908;57;1138610;-64
2023/06/13 08:59:37;;;;;;;3.40;2.50;;;;;;;17.42;59.37;100902.91;5054045;57;1138520;-64
2023/06/13 09:04:46;;;;;;;3.40;2.23;;;;;;;17.33;58.59;100909.20;4962001;58;1138837;-64
2023/06/13 09:09:53;;;;;;;1.87;1.77;;;;;;;17.29;59.36;100909.15;4989930;57;1138564;-64
2023/06/13 09:14:59;;;;;;;3.62;1.95;;;;;;;17.37;60.13;100906.56;4970039;57;1138619;-64
2023/06/13 09:20:07;;;;;;;4.47;2.17;;;;;;;17.59;60.27;100902.06;4969906;58;1138363;-64
2023/06/13 09:25:16;;;;;;;5.77;1.43;;;;;;;17.60;58.15;100902.41;4989362;58;1138914;-62
2023/06/13 09:30:22;;;;;;;2.07;1.67;;;;;;;17.66;58.09;100896.98;4969616;58;1138713;-64
2023/06/13 09:35:27;;;;;;;4.67;1.50;;;;;;;17.74;57.99;100888.50;4969144;57;1138845;-64
2023/06/13 09:40:33;;;;;;;3.20;1.60;;;;;;;17.95;56.96;100885.97;4970291;57;1138846;-64
2023/06/13 09:45:39;;;;;;;6.37;1.70;;;;;;;17.94;54.63;100886.47;4989837;58;1138861;-65
2023/06/13 09:50:46;;;;;;;12.37;1.27;;;;;;;17.86;53.58;100883.76;4987389;58;1149252;-65
2023/06/13 09:55:52;;;;;;;6.93;1.43;;;;;;;17.84;53.52;100883.91;4970777;58;1140991;-63
2023/06/13 10:00:59;;;;;;;4.25;1.20;;;;;;;17.86;53.85;100887.28;5010455;57;1138811;-64
2023/06/13 10:06:04;;;;;;;3.62;1.40;;;;;;;17.94;53.80;100889.15;5012426;57;1138828;-65
2023/06/13 10:11:18;;;;;;;3.03;1.30;;;;;;;17.93;53.57;100899.02;4960132;58;1138809;-63
2023/06/13 10:16:26;;;;;;;5.70;1.50;;;;;;;17.75;54.02;100898.70;5008260;57;1138717;-64
2023/06/13 10:21:34;;;;;;;10.43;2.27;;;;;;;17.68;54.48;100907.87;5041260;57;1138658;-63
2023/06/13 10:26:43;;;;;;;7.20;1.77;;;;;;;17.62;54.66;100905.77;4880168;59;1140801;-64
2023/06/13 10:32:26;;;;;;;9.83;1.90;;;;;;;17.58;54.73;100899.88;5034133;57;1138849;-64
2023/06/13 10:37:57;;;;;;;8.10;1.40;;;;;;;17.48;55.24;100904.98;5042619;57;1138576;-63
2023/06/13 10:43:07;;;;;;;6.33;1.67;;;;;;;17.32;56.38;100911.52;4998642;57;1138828;-63
2023/06/13 10:48:13;;;;;;;11.90;1.87;;;;;;;17.10;58.52;100906.99;4959882;58;1138814;-65
2023/06/13 10:53:33;;;;;;;12.87;2.90;;;;;;;16.92;59.75;100900.78;4979230;57;1140722;-65
2023/06/13 10:58:38;;;;;;;4.70;1.50;;;;;;;16.87;61.44;100912.41;4959268;58;1140895;-63
2023/06/13 11:03:44;;;;;;;5.37;1.37;;;;;;;16.92;61.86;100899.94;4983320;57;1138792;-63
2023/06/13 11:09:08;;;;;;;2.60;1.60;;;;;;;17.08;61.53;100892.09;5018210;57;1148733;-64
2023/06/13 11:14:14;;;;;;;18.67;15.13;;;;;;;17.20;60.22;100894.87;5041019;57;1138592;-64
2023/06/13 11:19:24;;;;;;;10.30;2.13;;;;;;;17.26;60.34;100881.41;4959192;58;1142779;-64
2023/06/13 11:24:30;;;;;;;8.60;2.20;;;;;;;17.19;60.59;100892.70;5059561;57;1140664;-63
2023/06/13 11:29:38;;;;;;;6.50;2.27;;;;;;;17.12;61.05;100894.29;5040783;57;1138730;-63
2023/06/13 11:34:48;;;;;;;6.95;1.60;;;;;;;17.15;61.63;100877.95;4959978;58;1138703;-65
2023/06/13 11:39:56;;;;;;;7.84;1.62;;;;;;;17.12;61.43;100884.09;4978002;57;1138796;-64
2023/06/13 11:45:02;;;;;;;3.12;1.80;;;;;;;17.06;61.42;100874.88;4959879;58;1138837;-64
2023/06/13 11:50:08;;;;;;;6.00;4.23;;;;;;;16.95;61.24;100876.44;4918448;58;1138673;-64
2023/06/13 11:55:20;;;;;;;8.07;2.30;;;;;;;16.91;61.92;100879.55;4979162;58;1138653;-63
2023/06/13 12:00:27;;;;;;;4.90;1.97;;;;;;;16.83;64.30;100876.28;4971607;57;1138516;-65
2023/06/13 12:05:33;;;;;;;14.80;3.60;;;;;;;16.84;63.76;100869.45;5041020;57;1138677;-64
2023/06/13 12:10:39;;;;;;;5.53;1.80;;;;;;;16.92;64.05;100867.38;5044274;57;1140813;-64
2023/06/13 12:15:45;;;;;;;3.00;1.50;;;;;;;16.93;64.48;100870.89;5072181;57;1138875;-64
2023/06/13 12:20:53;;;;;;;3.13;2.07;;;;;;;16.99;65.47;100872.45;5052442;57;1138920;-64
2023/06/13 12:25:59;;;;;;;13.13;2.53;;;;;;;16.93;64.99;100878.42;5052060;57;1138698;-64
2023/06/13 12:31:07;;;;;;;2.98;1.80;;;;;;;16.89;66.34;100866.34;5018082;57;1140832;-65
2023/06/13 12:36:14;;;;;;;3.97;2.70;;;;;;;16.88;66.15;100868.67;5012115;57;1138769;-63
2023/06/13 12:41:25;;;;;;;9.20;5.10;;;;;;;16.85;66.29;100868.97;5051777;57;1138471;-64
2023/06/13 12:46:28;;;;;;;16.37;7.13;;;;;;;16.74;65.67;100874.03;5048500;57;1138485;-64
2023/06/13 12:51:33;;;;;;;5.50;2.70;;;;;;;16.71;66.68;100876.16;4969351;57;1140621;-64
2023/06/13 12:56:56;;;;;;;5.97;2.33;;;;;;;16.68;66.81;100873.78;4970069;58;1138620;-64
2023/06/13 13:02:05;;;;;;;16.10;2.60;;;;;;;16.56;66.77;100876.28;5007937;57;1138787;-63
2023/06/13 13:07:12;;;;;;;6.32;2.30;;;;;;;16.44;67.62;100880.49;5009996;57;1140765;-64
2023/06/13 13:12:19;;;;;;;6.83;2.40;;;;;;;16.44;67.57;100881.83;4982592;57;1138685;-64
2023/06/13 13:17:24;;;;;;;4.47;2.20;;;;;;;16.38;67.73;100879.73;5022478;57;1138697;-64
2023/06/13 13:22:30;;;;;;;19.00;5.57;;;;;;;16.36;68.01;100872.36;5042272;57;1138826;-64
2023/06/13 13:27:35;;;;;;;8.57;3.13;;;;;;;16.36;68.17;100868.85;5022162;57;1140666;-64
2023/06/13 13:32:42;;;;;;;2.87;2.63;;;;;;;16.34;68.90;100865.52;4984590;57;1138731;-66
2023/06/13 13:37:49;;;;;;;5.23;2.47;;;;;;;16.35;69.44;100855.16;4978915;58;1138485;-66
2023/06/13 13:42:56;;;;;;;6.28;3.68;;;;;;;16.43;69.09;100844.59;4959471;58;1138705;-66
2023/06/13 13:48:01;;;;;;;2.58;2.37;;;;;;;16.46;70.02;100849.64;4959855;57;1138700;-66
2023/06/13 13:53:09;;;;;;;31.68;20.15;;;;;;;16.44;71.18;100851.62;4979360;57;1138699;-67
2023/06/13 13:58:16;;;;;;;2.00;1.90;;;;;;;16.42;70.25;100846.42;4959084;58;1142788;-66
2023/06/13 14:03:21;;;;;;;3.27;2.20;;;;;;;16.47;70.38;100844.66;5018987;57;1138723;-66
2023/06/13 14:08:27;;;;;;;2.97;2.70;;;;;;;16.48;70.24;100843.66;4978894;58;1138639;-66
2023/06/13 14:13:34;;;;;;;6.20;2.53;;;;;;;16.46;70.45;100851.82;4959167;58;1138815;-66
2023/06/13 14:18:39;;;;;;;9.43;2.20;;;;;;;16.38;70.43;100846.36;4959287;58;1138472;-66
2023/06/13 14:23:45;;;;;;;5.33;3.03;;;;;;;16.33;70.67;100843.32;4978837;58;1138568;-66
2023/06/13 14:28:52;;;;;;;5.33;2.22;;;;;;;16.34;71.28;100853.02;4960522;57;1139550;-68
2023/06/13 14:33:57;;;;;;;4.75;4.05;;;;;;;16.34;71.01;100851.68;5044948;56;1138463;-66
2023/06/13 14:39:05;;;;;;;2.72;1.90;;;;;;;16.38;71.65;100847.70;5061653;56;1138550;-66
2023/06/13 14:44:11;;;;;;;12.03;2.77;;;;;;;16.35;71.98;100849.33;5041578;57;1138344;-67
2023/06/13 14:49:16;;;;;;;3.80;2.63;;;;;;;16.37;72.16;100846.02;4971633;57;1141160;-66
2023/06/13 14:54:22;;;;;;;5.63;2.97;;;;;;;16.39;72.23;100840.53;4979364;58;1138542;-66
2023/06/13 14:59:27;;;;;;;7.97;3.10;;;;;;;16.47;72.81;100833.48;4959767;58;1138783;-65
2023/06/13 15:04:33;;;;;;;5.73;2.40;;;;;;;16.63;72.73;100825.34;5034318;57;1138726;-66
2023/06/13 15:09:42;;;;;;;3.50;2.60;;;;;;;16.77;72.18;100820.81;5023046;57;1138745;-66
2023/06/13 15:14:46;;;;;;;5.83;2.70;;;;;;;16.84;72.03;100821.38;5042528;57;1138754;-65
2023/06/13 15:19:52;;;;;;;7.60;2.27;;;;;;;16.85;71.20;100811.03;5035573;57;1138887;-66
2023/06/13 15:24:58;;;;;;;8.13;3.13;;;;;;;16.92;72.02;100803.75;4990658;57;1138592;-67
2023/06/13 15:30:05;;;;;;;11.83;2.27;;;;;;;16.96;71.21;100804.61;4985124;57;1138658;-66
2023/06/13 15:35:10;;;;;;;4.20;2.20;;;;;;;17.03;71.67;100804.84;4960174;57;1140764;-66
2023/06/13 15:40:16;;;;;;;6.67;2.47;;;;;;;17.12;70.95;100806.09;4960099;57;1138501;-66
2023/06/13 15:45:22;;;;;;;6.07;2.50;;;;;;;17.15;70.29;100806.28;4985178;57;1138661;-66
2023/06/13 15:50:27;;;;;;;3.03;2.73;;;;;;;17.08;70.48;100811.42;5041451;57;1138762;-67
2023/06/13 15:55:34;;;;;;;6.20;3.60;;;;;;;17.07;71.13;100806.23;5041487;57;1138674;-66
2023/06/13 16:00:41;;;;;;;2.72;2.52;;;;;;;16.93;70.83;100801.43;5041436;57;1138767;-66
2023/06/13 16:05:47;;;;;;;12.27;4.40;;;;;;;16.91;71.43;100802.91;5061134;57;1138518;-66
2023/06/13 16:10:53;;;;;;;7.58;3.90;;;;;;;16.95;71.65;100797.61;5040941;57;1140746;-68
2023/06/13 16:15:59;;;;;;;5.35;3.58;;;;;;;17.01;71.60;100798.32;5041513;57;1138659;-66
2023/06/13 16:21:05;;;;;;;12.20;3.72;;;;;;;17.05;71.57;100806.37;5021006;57;1138954;-66
2023/06/13 16:26:11;;;;;;;13.58;4.50;;;;;;;17.06;71.71;100801.88;5035619;57;1140994;-66
2023/06/13 16:31:17;;;;;;;10.60;4.73;;;;;;;17.05;71.61;100806.87;5054510;57;1140789;-66
2023/06/13 16:36:23;;;;;;;3.30;2.90;;;;;;;17.07;71.42;100802.22;5074348;57;1140680;-66
2023/06/13 16:41:29;;;;;;;6.20;4.10;;;;;;;17.08;71.33;100808.75;5054809;57;1138633;-66
2023/06/13 16:46:35;;;;;;;10.90;4.50;;;;;;;17.07;71.58;100812.41;5024919;57;1138758;-66
2023/06/13 16:51:41;;;;;;;11.35;3.55;;;;;;;17.00;70.83;100807.83;4959633;58;1141123;-66
2023/06/13 16:56:47;;;;;;;5.63;4.00;;;;;;;17.02;71.49;100824.05;4978768;57;1140923;-66
2023/06/13 17:01:55;;;;;;;8.03;4.30;;;;;;;17.07;71.21;100823.60;5003910;57;1138729;-66
2023/06/13 17:07:00;;;;;;;16.75;3.80;;;;;;;17.01;70.82;100818.36;5024419;57;1138864;-66
2023/06/13 17:12:10;;;;;;;22.00;3.73;;;;;;;17.04;71.04;100830.58;5041700;57;1140749;-67
2023/06/13 17:17:17;;;;;;;6.83;3.50;;;;;;;17.05;71.32;100828.25;4991699;57;1140890;-66
2023/06/13 17:22:23;;;;;;;10.60;3.77;;;;;;;17.06;70.96;100828.11;5028040;57;1138691;-66
2023/06/13 17:27:30;;;;;;;10.00;4.03;;;;;;;17.04;70.33;100835.43;5063630;56;1140718;-67
2023/06/13 17:32:36;;;;;;;8.60;7.60;;;;;;;16.99;70.38;100825.69;5044284;56;1141058;-67
2023/06/13 17:37:43;;;;;;;10.23;4.97;;;;;;;16.94;70.28;100828.00;5044454;56;1138804;-67
2023/06/13 17:42:48;;;;;;;8.97;8.03;;;;;;;16.91;70.87;100830.13;5063956;56;1140960;-67
2023/06/13 17:47:55;;;;;;;19.57;13.47;;;;;;;16.92;71.18;100829.98;4986919;56;1138702;-69
2023/06/13 17:53:04;;;;;;;4.47;4.03;;;;;;;16.90;71.55;100831.95;4955722;58;1142785;-66
2023/06/13 17:58:15;;;;;;;6.40;4.40;;;;;;;16.90;72.20;100832.45;4988355;58;1138807;-66
2023/06/13 18:03:22;;;;;;;13.23;8.27;;;;;;;16.87;72.01;100834.43;5029376;57;1138899;-67
2023/06/13 18:08:28;;;;;;;11.50;10.33;;;;;;;16.89;72.08;100840.96;5052114;57;1140810;-66
2023/06/13 18:13:35;;;;;;;19.23;14.97;;;;;;;16.86;72.20;100839.92;5011529;57;1143008;-67
2023/06/13 18:18:41;;;;;;;7.67;5.87;;;;;;;16.81;72.17;100837.70;4989741;57;1142686;-66
2023/06/13 18:23:47;;;;;;;11.37;5.93;;;;;;;16.83;72.50;100838.88;4970656;58;1138463;-66
2023/06/13 18:28:53;;;;;;;13.73;10.50;;;;;;;16.82;73.23;100839.38;4970341;58;1140747;-66
2023/06/13 18:33:59;;;;;;;15.47;12.70;;;;;;;16.74;73.64;100837.13;4989984;58;1143125;-65
2023/06/13 18:39:05;;;;;;;6.30;5.03;;;;;;;16.68;74.22;100847.07;4970512;58;1143127;-66
2023/06/13 18:44:12;;;;;;;6.13;3.83;;;;;;;16.65;74.16;100843.39;4970967;58;1138782;-66
2023/06/13 18:49:18;;;;;;;8.07;4.10;;;;;;;16.59;74.54;100850.13;4990101;57;1138651;-66
2023/06/13 18:54:24;;;;;;;7.30;4.83;;;;;;;16.56;74.83;100844.23;4970895;57;1138601;-66
2023/06/13 18:59:33;;;;;;;5.10;3.90;;;;;;;16.52;75.56;100847.70;4971030;57;1138758;-66
2023/06/13 19:04:38;;;;;;;5.80;4.00;;;;;;;16.44;75.96;100851.13;4969880;57;1139055;-66
2023/06/13 19:09:45;;;;;;;19.17;9.30;;;;;;;16.38;76.14;100850.37;4989750;57;1138955;-66
2023/06/13 19:14:50;;;;;;;21.67;9.10;;;;;;;16.37;76.54;100859.37;5034451;57;1141057;-66
2023/06/13 19:19:57;;;;;;;9.17;7.23;;;;;;;16.42;77.00;100855.77;5052706;57;1140920;-66
2023/06/13 19:25:03;;;;;;;27.55;12.55;;;;;;;16.44;77.03;100864.47;5068703;57;1138745;-66
2023/06/13 19:30:09;;;;;;;9.63;7.45;;;;;;;16.44;77.31;100869.81;4983111;57;1142867;-66
2023/06/13 19:35:15;;;;;;;10.88;8.55;;;;;;;16.43;77.38;100866.80;4960294;58;1138555;-67
2023/06/13 19:40:22;;;;;;;5.33;4.83;;;;;;;16.42;77.97;100877.62;4979466;58;1140820;-65
2023/06/13 19:45:27;;;;;;;7.13;3.90;;;;;;;16.42;77.67;100881.13;4959866;58;1138738;-66
2023/06/13 19:50:33;;;;;;;12.97;8.90;;;;;;;16.39;77.92;100877.41;4955104;58;1138588;-66
2023/06/13 19:55:39;;;;;;;7.80;5.30;;;;;;;16.38;78.38;100882.90;4955429;58;1140724;-66
2023/06/13 20:00:46;;;;;;;4.77;3.77;;;;;;;16.37;78.49;100883.88;4993111;57;1138966;-66
2023/06/13 20:05:53;;;;;;;8.03;4.53;;;;;;;16.38;78.74;100889.08;5004229;57;1138758;-66
2023/06/13 20:10:59;;;;;;;6.70;4.10;;;;;;;16.41;78.78;100886.61;4960274;57;1138820;-66
2023/06/13 20:16:05;;;;;;;9.98;4.30;;;;;;;16.44;79.01;100887.17;4979390;58;1138629;-65
2023/06/13 20:21:11;;;;;;;3.17;3.00;;;;;;;16.42;80.01;100894.97;4960353;57;1138541;-65
2023/06/13 20:26:17;;;;;;;3.93;3.53;;;;;;;16.39;80.13;100897.92;4959959;57;1138739;-66
2023/06/13 20:31:23;;;;;;;9.40;5.50;;;;;;;16.34;80.25;100896.22;4979641;58;1138694;-66
2023/06/13 20:36:28;;;;;;;8.23;4.80;;;;;;;16.31;80.19;100890.67;4959594;58;1138766;-65
2023/06/13 20:41:36;;;;;;;12.70;4.63;;;;;;;16.24;79.96;100905.58;4960247;57;1139066;-66
2023/06/13 20:46:44;;;;;;;7.53;3.90;;;;;;;16.14;80.00;100906.95;4960057;57;1144166;-65
2023/06/13 20:51:52;;;;;;;8.77;4.40;;;;;;;16.14;80.23;100908.29;4979404;58;1138616;-66
2023/06/13 20:56:58;;;;;;;14.93;7.63;;;;;;;16.14;79.93;100916.78;4960492;58;1138536;-67
2023/06/13 21:02:04;;;;;;;11.12;4.85;;;;;;;16.09;80.36;100913.20;4962506;57;1140864;-66
2023/06/13 21:07:11;;;;;;;8.70;4.58;;;;;;;16.12;81.00;100914.75;5040786;57;1140788;-66
2023/06/13 21:12:16;;;;;;;4.70;4.30;;;;;;;16.13;80.87;100914.61;5041870;57;1138888;-66
2023/06/13 21:17:22;;;;;;;6.53;4.27;;;;;;;16.13;80.72;100914.61;5006438;57;1138693;-66
2023/06/13 21:22:28;;;;;;;5.00;4.57;;;;;;;16.12;80.82;100920.09;4979418;58;1138500;-66
2023/06/13 21:27:34;;;;;;;6.77;4.03;;;;;;;16.06;81.17;100922.83;4958266;58;1259046;-66
2023/06/13 21:32:44;;;;;;;7.97;3.83;;;;;;;16.06;82.41;100923.32;4972691;57;1139070;-66
2023/06/13 21:37:49;;;;;;;5.67;4.60;;;;;;;16.05;83.04;100916.30;4972994;58;1138630;-66
2023/06/13 21:42:55;;;;;;;10.17;5.57;;;;;;;16.01;83.93;100918.44;4992806;57;1138585;-66
2023/06/13 21:48:01;;;;;;;6.63;5.10;;;;;;;15.97;85.67;100934.38;4973098;57;1140787;-66
2023/06/13 21:53:07;;;;;;;5.90;5.40;;;;;;;15.81;86.71;100926.97;4973432;58;1138696;-65
2023/06/13 21:58:15;;;;;;;8.13;5.42;;;;;;;15.73;87.89;100943.34;5027128;57;1138749;-66
2023/06/13 22:03:19;;;;;;;6.67;5.03;;;;;;;15.74;88.61;100937.00;5054134;57;1138648;-66
2023/06/13 22:08:26;;;;;;;7.40;4.90;;;;;;;15.76;89.08;100947.88;5057345;57;1138478;-66
2023/06/13 22:13:31;;;;;;;11.53;6.60;;;;;;;15.86;90.16;100948.38;5077239;57;1138647;-65
2023/06/13 22:18:43;;;;;;;10.10;6.90;;;;;;;15.89;90.38;100942.23;5057136;57;1140766;-66
2023/06/13 22:23:44;;;;;;;10.37;6.50;;;;;;;15.95;90.63;100932.84;5056499;57;1141131;-65
2023/06/13 22:28:50;;;;;;;12.07;6.10;;;;;;;15.93;90.91;100933.47;5077071;57;1141242;-66
2023/06/13 22:33:56;;;;;;;8.63;6.60;;;;;;;15.89;91.65;100924.91;5026782;57;1141025;-66
2023/06/13 22:39:02;;;;;;;8.70;6.53;;;;;;;15.81;91.34;100931.45;5004866;57;1138645;-66
2023/06/13 22:44:08;;;;;;;9.40;6.47;;;;;;;15.77;92.13;100925.56;4979576;58;1138605;-65
2023/06/13 22:49:14;;;;;;;8.10;6.92;;;;;;;15.79;92.91;100926.27;4960429;58;1138644;-66
2023/06/13 22:54:20;;;;;;;15.17;7.47;;;;;;;15.79;93.42;100926.75;4960509;57;1138533;-67
2023/06/13 22:59:26;;;;;;;14.60;7.76;;;;;;;15.73;93.49;100918.85;4979689;58;1140856;-66
2023/06/13 23:04:33;;;;;;;7.27;6.30;;;;;;;15.64;94.02;100919.69;5034710;57;1140825;-66
2023/06/13 23:09:39;;;;;;;11.07;7.07;;;;;;;15.62;94.31;100922.98;5023379;57;1138602;-65